createdAt,value
2022-12-24T00:01:08.650Z,98723.66
2022-12-24T00:05:20.603Z,98747.56
2022-12-24T00:09:32.795Z,98741.31
2022-12-24T00:13:45.355Z,98755.47
2022-12-24T00:17:48.359Z,98746.59
2022-12-24T00:22:05.248Z,98745.59
2022-12-24T00:26:09.275Z,98738.91
2022-12-24T00:30:12.664Z,98745.81
2022-12-24T00:34:15.557Z,98717.34
2022-12-24T00:38:22.139Z,98749.28
2022-12-24T00:42:31.702Z,98776.41
2022-12-24T00:46:44.301Z,98769.22
2022-12-24T00:50:47.724Z,98715.13
2022-12-24T00:54:52.847Z,98756.75
2022-12-24T00:58:55.726Z,98749.97
2022-12-24T01:02:59.198Z,98780.56
2022-12-24T01:07:02.419Z,98779.19
2022-12-24T01:11:09.947Z,98805.63
2022-12-24T01:15:15.779Z,98807.84
2022-12-24T01:19:18.932Z,98817.41
2022-12-24T01:23:21.869Z,98829.06
2022-12-24T01:27:26.260Z,98818.50
2022-12-24T01:31:29.410Z,98815.69
2022-12-24T01:35:33.266Z,98801.94
2022-12-24T01:39:36.169Z,98826.31
2022-12-24T01:43:42.866Z,98816.97
2022-12-24T01:47:47.968Z,98812.31
2022-12-24T01:52:11.075Z,98828.25
2022-12-24T01:56:22.820Z,98808.44
2022-12-24T02:00:28.285Z,98832.72
2022-12-24T02:04:36.004Z,98820.13
2022-12-24T02:08:45.069Z,98836.59
2022-12-24T02:12:49.470Z,98796.03
2022-12-24T02:17:09.683Z,98852.59
2022-12-24T02:21:51.266Z,98852.41
2022-12-24T02:26:09.252Z,98809.31
2022-12-24T02:30:16.326Z,98859.97
2022-12-24T02:34:26.377Z,98853.63
2022-12-24T02:38:32.093Z,98846.66
2022-12-24T02:42:39.260Z,98870.09
2022-12-24T02:46:53.947Z,98867.00
2022-12-24T02:50:58.937Z,98838.91
2022-12-24T02:55:05.778Z,98863.00
2022-12-24T02:59:31.762Z,98876.75
2022-12-24T03:03:41.919Z,98900.16
2022-12-24T03:07:57.421Z,98874.19
2022-12-24T03:12:05.057Z,98901.75
2022-12-24T03:16:09.645Z,98875.94
2022-12-24T03:20:19.542Z,98915.19
2022-12-24T03:24:22.852Z,98884.41
2022-12-24T03:28:27.223Z,98905.66
2022-12-24T03:32:34.217Z,98923.28
2022-12-24T03:36:39.086Z,98915.03
2022-12-24T03:40:49.895Z,98913.44
2022-12-24T03:44:53.133Z,98930.66
2022-12-24T03:48:59.310Z,98940.41
2022-12-24T03:53:05.386Z,98930.38
2022-12-24T03:57:08.431Z,98878.31
2022-12-24T04:01:13.033Z,98945.09
2022-12-24T04:05:16.950Z,98941.59
2022-12-24T04:09:30.952Z,98952.50
2022-12-24T04:13:38.922Z,98936.38
2022-12-24T04:17:41.856Z,98902.59
2022-12-24T04:21:44.775Z,98949.84
2022-12-24T04:25:49.024Z,98913.66
2022-12-24T04:29:51.905Z,98934.09
2022-12-24T04:34:12.936Z,98929.47
2022-12-24T04:38:16.969Z,98909.47
2022-12-24T04:42:22.271Z,98932.69
2022-12-24T04:46:27.899Z,98937.19
2022-12-24T04:50:31.543Z,98880.47
2022-12-24T04:54:47.317Z,98932.31
2022-12-24T04:59:02.511Z,98931.28
2022-12-24T05:03:05.627Z,98941.53
2022-12-24T05:07:08.812Z,98932.38
2022-12-24T05:11:14.599Z,98930.06
2022-12-24T05:15:19.133Z,98941.66
2022-12-24T05:19:22.302Z,98911.94
2022-12-24T05:23:49.233Z,98957.13
2022-12-24T05:27:54.722Z,98955.09
2022-12-24T05:31:59.398Z,98978.13
2022-12-24T05:36:02.256Z,98965.91
2022-12-24T05:40:05.832Z,98958.53
2022-12-24T05:44:09.034Z,98935.59
2022-12-24T05:48:30.880Z,98959.78
2022-12-24T05:52:34.584Z,98982.00
2022-12-24T05:56:37.506Z,98981.03
2022-12-24T06:00:40.880Z,98990.03
2022-12-24T06:04:46.777Z,98971.38
2022-12-24T06:08:57.782Z,98991.50
2022-12-24T06:13:01.123Z,98972.75
2022-12-24T06:17:04.256Z,98957.66
2022-12-24T06:21:09.422Z,99001.75
2022-12-24T06:25:12.987Z,98991.56
2022-12-24T06:29:16.344Z,98984.72
2022-12-24T06:33:20.792Z,99000.97
2022-12-24T06:37:25.362Z,98999.50
2022-12-24T06:41:31.055Z,99002.72
2022-12-24T06:45:34.173Z,99021.59
2022-12-24T06:49:37.416Z,99010.63
2022-12-24T06:53:47.369Z,99018.38
2022-12-24T06:57:50.468Z,99002.78
2022-12-24T07:01:53.684Z,99001.00
2022-12-24T07:05:57.999Z,99010.06
2022-12-24T07:10:02.575Z,99008.81
2022-12-24T07:14:08.865Z,99005.13
2022-12-24T07:18:16.028Z,99021.31
2022-12-24T07:22:19.267Z,99014.88
2022-12-24T07:26:23.962Z,99000.50
2022-12-24T07:30:30.118Z,99011.78
2022-12-24T07:34:33.165Z,99036.25
2022-12-24T07:38:36.378Z,99008.03
2022-12-24T07:42:41.413Z,99020.69
2022-12-24T07:46:44.829Z,99016.16
2022-12-24T07:50:50.589Z,99035.97
2022-12-24T07:55:11.079Z,99034.00
2022-12-24T07:59:17.376Z,99044.94
2022-12-24T08:03:21.794Z,99044.72
2022-12-24T08:07:25.652Z,99055.41
2022-12-24T08:11:29.471Z,99031.06
2022-12-24T08:15:34.531Z,99061.75
2022-12-24T08:19:37.440Z,99059.09
2022-12-24T08:23:40.668Z,99039.53
2022-12-24T08:27:43.633Z,99078.09
2022-12-24T08:31:48.976Z,99079.19
2022-12-24T08:35:53.606Z,99100.00
2022-12-24T08:39:57.409Z,99091.94
2022-12-24T08:44:00.392Z,99047.53
2022-12-24T08:48:06.836Z,99119.53
2022-12-24T08:52:13.544Z,99117.53
2022-12-24T08:56:34.956Z,99078.28
2022-12-24T09:00:38.602Z,99076.44
2022-12-24T09:04:51.351Z,99071.84
2022-12-24T09:08:55.039Z,99073.22
2022-12-24T09:12:58.661Z,99105.38
2022-12-24T09:17:02.945Z,99143.13
2022-12-24T09:21:11.820Z,99132.16
2022-12-24T09:25:28.750Z,99134.88
2022-12-24T09:29:32.355Z,99111.03
2022-12-24T09:33:37.474Z,99135.38
2022-12-24T09:37:45.244Z,99147.63
2022-12-24T09:42:06.157Z,99156.78
2022-12-24T09:46:15.219Z,99151.38
2022-12-24T09:50:42.089Z,99166.75
2022-12-24T09:54:52.997Z,99104.72
2022-12-24T09:59:00.724Z,99157.41
2022-12-24T10:03:10.649Z,99171.47
2022-12-24T10:07:24.919Z,99165.78
2022-12-24T10:11:35.234Z,99145.66
2022-12-24T10:15:58.377Z,99178.50
2022-12-24T10:20:15.749Z,99195.00
2022-12-24T10:24:23.109Z,99136.31
2022-12-24T10:28:32.535Z,99168.59
2022-12-24T10:32:41.012Z,99183.06
2022-12-24T10:36:44.100Z,99137.47
2022-12-24T10:41:00.663Z,99167.38
2022-12-24T10:45:08.012Z,99182.59
2022-12-24T10:49:16.303Z,99130.22
2022-12-24T10:53:23.020Z,99151.25
2022-12-24T10:57:29.205Z,99142.16
2022-12-24T11:01:49.758Z,99171.56
2022-12-24T11:06:07.506Z,99182.28
2022-12-24T11:10:27.239Z,99168.69
2022-12-24T11:14:40.571Z,99160.88
2022-12-24T11:18:51.959Z,99146.53
2022-12-24T11:22:55.952Z,99143.56
2022-12-24T11:27:24.943Z,99146.97
2022-12-24T11:31:37.380Z,99141.53
2022-12-24T11:35:45.422Z,99148.38
2022-12-24T11:39:53.063Z,99123.59
2022-12-24T11:44:06.205Z,99140.59
2022-12-24T11:48:26.208Z,99146.63
2022-12-24T11:52:37.817Z,99161.47
2022-12-24T11:56:48.944Z,99144.44
2022-12-24T12:00:52.873Z,99147.91
2022-12-24T12:05:00.819Z,99159.25
2022-12-24T12:09:08.896Z,99143.75
2022-12-24T12:13:16.068Z,99174.38
2022-12-24T12:17:28.598Z,99178.94
2022-12-24T12:21:35.881Z,99149.16
2022-12-24T12:25:49.414Z,99158.06
2022-12-24T12:29:57.150Z,99133.56
2022-12-24T12:34:04.254Z,99145.13
2022-12-24T12:38:10.392Z,99175.47
2022-12-24T12:42:21.087Z,99162.94
2022-12-24T12:46:33.380Z,99145.13
2022-12-24T12:50:40.181Z,99185.69
2022-12-24T12:54:53.142Z,99180.84
2022-12-24T12:59:03.529Z,99183.75
2022-12-24T13:03:24.973Z,99190.94
2022-12-24T13:07:53.555Z,99192.47
2022-12-24T13:12:10.092Z,99161.28
2022-12-24T13:16:42.774Z,99175.03
2022-12-24T13:20:48.531Z,99192.19
2022-12-24T13:24:54.377Z,99196.09
2022-12-24T13:29:31.017Z,99201.22
2022-12-24T13:33:49.793Z,99147.81
2022-12-24T13:37:57.823Z,99196.56
2022-12-24T13:42:00.985Z,99138.78
2022-12-24T13:46:09.071Z,99164.44
2022-12-24T13:50:24.438Z,99171.56
2022-12-24T13:54:28.640Z,99195.91
2022-12-24T13:58:32.518Z,99190.50
2022-12-24T14:02:38.712Z,99166.63
2022-12-24T14:06:54.028Z,99172.53
2022-12-24T14:11:14.605Z,99176.16
2022-12-24T14:16:06.259Z,99173.47
2022-12-24T14:20:10.655Z,99167.66
2022-12-24T14:24:18.289Z,99181.22
2022-12-24T14:28:32.175Z,99172.03
2022-12-24T14:32:37.663Z,99200.75
2022-12-24T14:36:41.540Z,99191.94
2022-12-24T14:41:00.964Z,99193.41
2022-12-24T14:45:12.595Z,99189.06
2022-12-24T14:49:33.956Z,99228.75
2022-12-24T14:53:51.105Z,99214.25
2022-12-24T14:58:23.060Z,99221.09
2022-12-24T15:02:32.236Z,99222.63
2022-12-24T15:06:41.125Z,99232.97
2022-12-24T15:10:45.565Z,99215.09
2022-12-24T15:14:50.298Z,99222.72
2022-12-24T15:19:05.267Z,99234.63
2022-12-24T15:23:08.122Z,99225.22
2022-12-24T15:27:16.152Z,99238.28
2022-12-24T15:31:22.906Z,99245.38
2022-12-24T15:35:34.243Z,99249.25
2022-12-24T15:39:37.474Z,99248.22
2022-12-24T15:43:41.526Z,99243.41
2022-12-24T15:47:54.802Z,99248.22
2022-12-24T15:52:04.003Z,99203.88
2022-12-24T15:56:08.745Z,99256.28
2022-12-24T16:00:23.455Z,99260.69
2022-12-24T16:04:29.554Z,99278.06
2022-12-24T16:08:38.498Z,99260.03
2022-12-24T16:12:41.411Z,99281.00
2022-12-24T16:16:47.128Z,99262.84
2022-12-24T16:20:52.944Z,99283.44
2022-12-24T16:24:56.679Z,99281.66
2022-12-24T16:28:59.781Z,99272.22
2022-12-24T16:33:03.467Z,99267.97
2022-12-24T16:37:08.038Z,99266.94
2022-12-24T16:41:27.418Z,99275.13
2022-12-24T16:45:30.872Z,99270.53
2022-12-24T16:49:33.853Z,99281.56
2022-12-24T16:53:38.361Z,99295.41
2022-12-24T16:57:42.905Z,99296.91
2022-12-24T17:02:00.365Z,99285.72
2022-12-24T17:06:06.331Z,99254.16
2022-12-24T17:10:12.301Z,99281.44
2022-12-24T17:14:20.315Z,99271.19
2022-12-24T17:18:23.784Z,99266.94
2022-12-24T17:22:27.663Z,99276.47
2022-12-24T17:26:32.272Z,99266.13
2022-12-24T17:30:35.011Z,99271.56
2022-12-24T17:34:38.964Z,99294.22
2022-12-24T17:38:41.759Z,99306.06
2022-12-24T17:42:45.886Z,99307.78
2022-12-24T17:46:49.159Z,99294.03
2022-12-24T17:50:51.966Z,99303.06
2022-12-24T17:54:55.885Z,99296.09
2022-12-24T17:59:00.241Z,99262.00
2022-12-24T18:03:03.239Z,99290.66
2022-12-24T18:07:06.470Z,99257.94
2022-12-24T18:11:15.547Z,99267.75
2022-12-24T18:15:21.091Z,99259.88
2022-12-24T18:19:24.547Z,99285.28
2022-12-24T18:23:27.256Z,99289.41
2022-12-24T18:27:30.247Z,99291.69
2022-12-24T18:31:34.741Z,99295.72
2022-12-24T18:35:37.590Z,99289.19
2022-12-24T18:39:40.627Z,99305.84
2022-12-24T18:43:43.945Z,99308.09
2022-12-24T18:47:49.135Z,99307.63
2022-12-24T18:51:51.889Z,99300.31
2022-12-24T18:55:56.223Z,99288.41
2022-12-24T18:59:59.382Z,99320.38
2022-12-24T19:04:04.213Z,99318.09
2022-12-24T19:08:37.913Z,99312.94
2022-12-24T19:12:31.873Z,99280.63
2022-12-24T19:16:37.004Z,99304.00
2022-12-24T19:20:41.907Z,99289.13
2022-12-24T19:24:44.797Z,99308.47
2022-12-24T19:28:48.333Z,99293.94
2022-12-24T19:32:56.668Z,99323.16
2022-12-24T19:37:01.996Z,99299.66
2022-12-24T19:41:08.729Z,99304.63
2022-12-24T19:45:12.862Z,99328.91
2022-12-24T19:49:15.657Z,99345.75
2022-12-24T19:53:20.285Z,99358.47
2022-12-24T19:57:23.037Z,99339.94
2022-12-24T20:01:27.175Z,99364.53
2022-12-24T20:05:30.125Z,99369.03
2022-12-24T20:09:34.347Z,99358.00
2022-12-24T20:13:38.290Z,99313.63
2022-12-24T20:17:42.219Z,99336.31
2022-12-24T20:21:57.314Z,99351.38
2022-12-24T20:26:37.626Z,99326.34
2022-12-24T20:30:41.619Z,99332.91
2022-12-24T20:34:47.531Z,99315.81
2022-12-24T20:38:59.457Z,99318.00
2022-12-24T20:43:09.859Z,99303.03
2022-12-24T20:47:19.799Z,99287.19
2022-12-24T20:51:37.169Z,99313.66
2022-12-24T20:55:44.635Z,99321.00
2022-12-24T21:00:04.800Z,99319.63
2022-12-24T21:04:11.067Z,99336.56
2022-12-24T21:08:33.208Z,99318.69
2022-12-24T21:12:59.683Z,99324.44
2022-12-24T21:17:15.632Z,99286.75
2022-12-24T21:21:23.762Z,99324.53
2022-12-24T21:25:44.086Z,99318.34
2022-12-24T21:29:51.664Z,99305.16
2022-12-24T21:34:35.285Z,99300.94
2022-12-24T21:38:46.396Z,99297.25
2022-12-24T21:42:54.376Z,99298.19
2022-12-24T21:47:05.267Z,99303.22
2022-12-24T21:51:25.145Z,99310.56
2022-12-24T21:55:35.207Z,99293.28
2022-12-24T21:59:45.970Z,99278.50
2022-12-24T22:04:12.277Z,99283.31
2022-12-24T22:08:35.115Z,99259.25
2022-12-24T22:12:51.969Z,99294.50
2022-12-24T22:17:01.825Z,99312.28
2022-12-24T22:21:11.415Z,99324.41
2022-12-24T22:25:20.458Z,99314.91
2022-12-24T22:29:26.100Z,99308.84
2022-12-24T22:33:38.076Z,99316.97
2022-12-24T22:38:00.876Z,99309.06
2022-12-24T22:42:09.773Z,99300.94
2022-12-24T22:46:18.508Z,99316.28
2022-12-24T22:50:24.938Z,99314.34
2022-12-24T22:54:36.143Z,99326.59
2022-12-24T22:58:53.085Z,99319.84
2022-12-24T23:03:11.529Z,99326.47
2022-12-24T23:07:21.638Z,99335.41
2022-12-24T23:11:31.991Z,99318.56
2022-12-24T23:15:49.783Z,99326.59
2022-12-24T23:20:06.058Z,99323.72
2022-12-24T23:24:16.118Z,99320.75
2022-12-24T23:28:30.620Z,99324.09
2022-12-24T23:32:48.906Z,99310.91
2022-12-24T23:36:55.025Z,99306.81
2022-12-24T23:41:10.335Z,99316.06
2022-12-24T23:45:31.896Z,99323.63
2022-12-24T23:49:46.959Z,99277.13
2022-12-24T23:53:54.204Z,99289.94
2022-12-24T23:58:10.976Z,99308.03
